createdAt,value
2022-08-29T02:24:24.236Z,24.7
2022-08-29T03:05:09.369Z,24.7
2022-08-29T04:35:38.610Z,24.7
2022-08-29T08:52:20.788Z,24.7
2022-08-29T10:04:39.711Z,23.6
2022-08-29T10:05:39.558Z,23.6
2022-08-29T10:06:43.718Z,23.8
2022-08-29T10:07:39.541Z,23.6
2022-08-29T10:08:41.731Z,23.7
2022-08-29T10:09:39.652Z,23.3
2022-08-29T10:10:39.747Z,23.7
2022-08-29T10:11:41.354Z,24.7
2022-08-29T10:12:41.666Z,24.5
2022-08-29T10:13:39.921Z,24.2
2022-08-29T10:14:40.493Z,24.4
2022-08-29T10:15:50.285Z,24.4
2022-08-29T10:16:40.286Z,24.2
2022-08-29T10:17:40.084Z,24.7
2022-08-29T10:18:40.130Z,24.2
2022-08-29T10:19:42.704Z,23.9
2022-08-29T10:20:40.609Z,23.6
2022-08-29T10:21:40.294Z,23.7
2022-08-29T10:22:42.690Z,24
2022-08-29T10:23:42.659Z,24.8
2022-08-29T10:24:40.447Z,25.3
2022-08-29T10:25:40.547Z,24.9
2022-08-29T10:26:42.187Z,24.9
2022-08-29T10:27:41.582Z,24.8
2022-08-29T10:28:40.704Z,24.7
2022-08-29T10:29:42.531Z,25
2022-08-29T10:30:40.803Z,24.7
2022-08-29T10:31:41.143Z,24.8
2022-08-29T10:32:40.913Z,25
2022-08-29T10:33:42.401Z,25
2022-08-29T10:34:41.030Z,25.4
2022-08-29T10:35:41.705Z,25.6
2022-08-29T10:36:41.249Z,25.6
2022-08-29T10:37:41.647Z,25.3
2022-08-29T10:38:41.210Z,25.3
2022-08-29T10:39:41.256Z,24.8
2022-08-29T10:40:44.242Z,24.6
2022-08-29T10:41:45.131Z,24.7
2022-08-29T10:42:43.259Z,24.8
2022-08-29T10:43:41.532Z,24.6
2022-08-29T10:44:42.402Z,24.8
2022-08-29T10:45:41.628Z,24.3
2022-08-29T10:46:41.639Z,24.2
2022-08-29T10:47:42.062Z,24.9
2022-08-29T10:48:42.250Z,25
2022-08-29T10:49:44.328Z,24.9
2022-08-29T10:50:44.811Z,24.9
2022-08-29T10:51:41.927Z,24.6
2022-08-29T10:52:42.721Z,24.1
2022-08-29T10:53:42.948Z,24.3
2022-08-29T10:54:42.084Z,24.5
2022-08-29T10:55:43.740Z,25.3
2022-08-29T10:56:43.780Z,25
2022-08-29T10:57:44.499Z,24.8
2022-08-29T10:58:42.642Z,24.7
2022-08-29T10:59:42.393Z,25
2022-08-29T11:00:43.341Z,25.5
2022-08-29T11:01:42.659Z,25.1
2022-08-29T11:02:42.730Z,25
2022-08-29T11:03:42.794Z,25.1
2022-08-29T11:04:42.830Z,25.7
2022-08-29T11:05:43.016Z,25.6
2022-08-29T11:06:43.424Z,25.3
2022-08-29T11:07:43.186Z,24.9
2022-08-29T11:08:45.043Z,25
2022-08-29T11:09:44.000Z,24.6
2022-08-29T11:10:43.154Z,24.9
2022-08-29T11:11:44.911Z,24.8
2022-08-29T11:12:43.287Z,24.7
2022-08-29T11:13:44.135Z,24.5
2022-08-29T11:14:43.419Z,24.6
2022-08-29T11:15:44.265Z,24.6
2022-08-29T11:16:43.531Z,24.3
2022-08-29T11:17:43.518Z,24.6
2022-08-29T11:18:44.099Z,24.7
2022-08-29T11:19:43.624Z,24.6
2022-08-29T11:20:43.685Z,24.8
2022-08-29T11:21:44.087Z,25.1
2022-08-29T11:22:43.780Z,24.9
2022-08-29T11:23:45.433Z,25.1
2022-08-29T11:24:46.951Z,25.3
2022-08-29T11:25:45.381Z,25.3
2022-08-29T11:26:44.015Z,25.5
2022-08-29T11:27:44.385Z,25.6
2022-08-29T11:29:44.160Z,25.7
2022-08-29T11:30:47.892Z,25.4
2022-08-29T11:31:46.034Z,25.7
2022-08-29T11:32:45.322Z,25.7
2022-08-29T11:33:44.380Z,25.5
2022-08-29T11:34:45.651Z,25.4
2022-08-29T11:35:44.598Z,25.7
2022-08-29T11:36:46.062Z,25.5
2022-08-29T11:37:45.238Z,25.8
2022-08-29T11:38:44.664Z,26.2
2022-08-29T11:39:44.767Z,26.2
2022-08-29T11:40:48.515Z,26.3
2022-08-29T11:41:45.103Z,26.3
2022-08-29T11:42:50.271Z,26
2022-08-29T11:43:44.934Z,25.8
2022-08-29T11:44:45.015Z,25.4
2022-08-29T11:45:45.424Z,25.8
2022-08-29T11:46:46.686Z,26.5
2022-08-29T11:47:47.662Z,26.2
2022-08-29T11:48:45.201Z,26
2022-08-29T11:49:47.655Z,25.6
2022-08-29T11:50:46.557Z,25.8
2022-08-29T11:51:46.364Z,26.1
2022-08-29T11:52:47.403Z,25.9
2022-08-29T11:53:45.536Z,26
2022-08-29T11:54:45.572Z,25.9
2022-08-29T11:55:45.629Z,25.8
2022-08-29T11:56:45.666Z,26
2022-08-29T11:57:45.725Z,26.1
2022-08-29T11:58:46.205Z,25.7
2022-08-29T11:59:47.791Z,25.3
2022-08-29T12:00:45.869Z,25
2022-08-29T12:01:46.218Z,25.3
2022-08-29T12:02:48.997Z,25.6
2022-08-29T12:03:48.676Z,25.8
2022-08-29T12:04:46.192Z,26
2022-08-29T12:05:46.500Z,26.2
2022-08-29T12:06:46.240Z,26.2
2022-08-29T12:07:48.586Z,26.1
2022-08-29T12:08:46.336Z,26.5
2022-08-29T12:09:46.393Z,26.6
2022-08-29T12:10:48.344Z,26.8
2022-08-29T12:11:47.326Z,27
2022-08-29T12:12:46.563Z,26.4
2022-08-29T12:13:46.747Z,26.1
2022-08-29T12:14:48.967Z,25.8
2022-08-29T12:15:46.716Z,25.7
2022-08-29T12:16:46.936Z,26.2
2022-08-29T12:18:03.786Z,26.6
2022-08-29T12:18:46.889Z,26.7
2022-08-29T12:19:46.947Z,26.8
2022-08-29T12:20:47.329Z,27.1
2022-08-29T12:21:47.073Z,27.6
2022-08-29T12:22:47.119Z,27.5
2022-08-29T12:23:49.108Z,27.4
2022-08-29T12:24:55.202Z,27.2
2022-08-29T12:25:59.296Z,26.9
2022-08-29T12:26:47.812Z,26.7
2022-08-29T12:27:47.380Z,26.9
2022-08-29T12:28:47.782Z,27.2
2022-08-29T12:29:47.547Z,27.1
2022-08-29T12:30:47.669Z,27
2022-08-29T12:32:02.297Z,27
2022-08-29T12:32:47.802Z,27.5
2022-08-29T12:33:50.410Z,27.2
2022-08-29T12:34:49.831Z,27.5
2022-08-29T12:35:47.911Z,27.4
2022-08-29T12:36:52.332Z,27.5
2022-08-29T12:37:48.004Z,27.5
2022-08-29T12:38:48.054Z,27
2022-08-29T12:39:48.582Z,26.4
2022-08-29T12:40:48.344Z,26.3
2022-08-29T12:41:50.053Z,26.5
2022-08-29T12:42:48.254Z,26.8
2022-08-29T12:43:48.308Z,27.1
2022-08-29T12:44:49.655Z,26.9
2022-08-29T12:45:50.614Z,27
2022-08-29T12:46:51.622Z,26.9
2022-08-29T12:47:49.597Z,26.4
2022-08-29T12:48:57.108Z,26
2022-08-29T12:49:48.660Z,26.3
2022-08-29T12:50:48.725Z,26.7
2022-08-29T12:51:50.019Z,26.9
2022-08-29T12:52:50.583Z,26.8
2022-08-29T12:53:50.543Z,27
2022-08-29T12:54:52.135Z,27.4
2022-08-29T12:55:49.176Z,27.5
2022-08-29T12:56:49.423Z,27.1
2022-08-29T12:57:49.242Z,27.1
2022-08-29T12:58:49.314Z,27.3
2022-08-29T12:59:50.195Z,27.7
2022-08-29T13:00:49.611Z,27.5
2022-08-29T13:01:49.515Z,27.4
2022-08-29T13:02:50.002Z,27.6
2022-08-29T13:03:49.556Z,27.4
2022-08-29T13:04:49.669Z,27.4
2022-08-29T13:05:52.454Z,27
2022-08-29T13:06:51.482Z,27
2022-08-29T13:08:51.125Z,27.1
2022-08-29T13:08:54.893Z,27
2022-08-29T13:09:49.931Z,27
2022-08-29T13:10:51.502Z,27
2022-08-29T13:11:52.034Z,27.1
2022-08-29T13:12:52.130Z,27.3
2022-08-29T13:13:51.398Z,27.7
2022-08-29T13:14:50.161Z,27.8
2022-08-29T13:15:51.914Z,27.9
2022-08-29T13:16:50.303Z,27.8
2022-08-29T13:17:50.545Z,27.4
2022-08-29T13:19:07.605Z,27.2
2022-08-29T13:19:50.392Z,26.9
2022-08-29T13:20:50.422Z,27
2022-08-29T13:21:50.735Z,26.9
2022-08-29T13:22:50.763Z,26.9
2022-08-29T13:23:50.610Z,26.9
2022-08-29T13:24:50.655Z,27
2022-08-29T13:25:50.994Z,26.8
2022-08-29T13:27:01.099Z,26.8
2022-08-29T13:27:51.029Z,27
2022-08-29T13:28:50.942Z,27.3
2022-08-29T13:29:51.047Z,27.5
2022-08-29T13:30:52.864Z,27.5
2022-08-29T13:31:51.292Z,27.4
2022-08-29T13:32:51.272Z,27.5
2022-08-29T13:33:52.569Z,27.2
2022-08-29T13:34:51.371Z,27.3
2022-08-29T13:35:51.439Z,27.6
2022-08-29T13:36:53.643Z,27.7
2022-08-29T13:37:51.645Z,27.3
2022-08-29T13:38:53.041Z,27.3
2022-08-29T13:39:51.583Z,27.3
2022-08-29T13:40:52.493Z,27.8
2022-08-29T13:41:51.707Z,28
2022-08-29T13:42:52.241Z,28
2022-08-29T13:43:51.863Z,27.8
2022-08-29T13:44:51.892Z,27.8
2022-08-29T13:45:51.919Z,28
2022-08-29T13:46:52.115Z,27.9
2022-08-29T13:47:52.289Z,27.5
2022-08-29T13:48:53.676Z,27.4
2022-08-29T13:49:52.967Z,27.4
2022-08-29T13:50:53.659Z,27.4
2022-08-29T13:51:52.599Z,27.3
2022-08-29T13:52:52.357Z,27.2
2022-08-29T13:53:52.496Z,27
2022-08-29T13:54:52.461Z,26.6
2022-08-29T13:55:53.711Z,26.4
2022-08-29T13:56:52.675Z,26.4
2022-08-29T13:57:54.843Z,26.6
2022-08-29T13:58:53.756Z,26.7
2022-08-29T13:59:52.720Z,26.8
2022-08-29T14:00:53.261Z,27
2022-08-29T14:02:10.893Z,27.2
2022-08-29T14:02:53.590Z,27.4
2022-08-29T14:03:53.882Z,27.2
2022-08-29T14:04:54.507Z,26.8
2022-08-29T14:05:53.746Z,26.7
2022-08-29T14:06:53.195Z,26.8
2022-08-29T14:07:54.703Z,27
2022-08-29T14:08:54.761Z,27.1
2022-08-29T14:09:53.646Z,26.9
2022-08-29T14:11:01.897Z,26.4
2022-08-29T14:11:55.581Z,26.7
2022-08-29T14:12:55.547Z,26.8
2022-08-29T14:13:54.919Z,26.8
2022-08-29T14:14:54.890Z,26.9
2022-08-29T14:15:55.816Z,27.1
2022-08-29T14:16:55.228Z,27.2
2022-08-29T14:17:55.601Z,27.2
2022-08-29T14:18:55.172Z,27.3
2022-08-29T14:19:53.989Z,27.4
2022-08-29T14:20:54.084Z,27.5
2022-08-29T14:21:54.128Z,27.3
2022-08-29T14:22:54.164Z,27.1
2022-08-29T14:23:56.009Z,27
2022-08-29T14:24:56.074Z,26.8
2022-08-29T14:25:54.333Z,27
2022-08-29T14:26:54.433Z,27.3
2022-08-29T14:27:57.474Z,27.3
2022-08-29T14:28:54.504Z,26.8
2022-08-29T14:29:55.270Z,26.6
2022-08-29T14:30:55.698Z,26.4
2022-08-29T14:31:54.677Z,26.7
2022-08-29T14:32:55.620Z,26.6
2022-08-29T14:33:54.785Z,26.4
2022-08-29T14:34:56.130Z,26.7
2022-08-29T14:35:55.667Z,26.8
2022-08-29T14:36:55.154Z,26.5
2022-08-29T14:37:55.203Z,26.5
2022-08-29T14:38:55.239Z,26.8
2022-08-29T14:39:55.448Z,26.9
2022-08-29T14:40:57.121Z,26.9
2022-08-29T14:41:57.711Z,26.7
2022-08-29T14:42:56.937Z,26.7
2022-08-29T14:43:55.348Z,26.8
2022-08-29T14:45:28.626Z,27
2022-08-29T14:45:55.629Z,26.5
2022-08-29T14:46:55.627Z,26.5
2022-08-29T14:47:55.769Z,26.5
2022-08-29T14:48:55.685Z,26.4
2022-08-29T14:49:56.788Z,26.5
2022-08-29T14:50:55.846Z,26.4
2022-08-29T14:52:00.091Z,26.2
2022-08-29T14:52:58.812Z,26.1
2022-08-29T14:53:57.436Z,26.2
2022-08-29T14:54:56.136Z,26.2
2022-08-29T14:56:03.515Z,25.9
2022-08-29T14:56:57.909Z,25.9
2022-08-29T14:57:56.262Z,25.9
2022-08-29T14:58:57.702Z,25.8
2022-08-29T14:59:56.596Z,26
2022-08-29T15:00:56.577Z,26
2022-08-29T15:01:57.662Z,25.8
2022-08-29T15:02:57.767Z,25.9
2022-08-29T15:03:58.100Z,25.8
2022-08-29T15:04:57.747Z,25.7
2022-08-29T15:05:58.729Z,25.7
2022-08-29T15:06:57.644Z,25.7
2022-08-29T15:07:56.801Z,25.7
2022-08-29T15:08:56.888Z,25.9
2022-08-29T15:09:56.937Z,25.9
2022-08-29T15:10:56.956Z,25.7
2022-08-29T15:11:57.085Z,25.8
2022-08-29T15:12:57.064Z,25.7
2022-08-29T15:13:59.876Z,25.9
2022-08-29T15:14:58.652Z,26.1
2022-08-29T15:15:59.545Z,26
2022-08-29T15:16:57.538Z,26
2022-08-29T15:18:00.057Z,26.1
2022-08-29T15:20:34.601Z,26
2022-08-29T15:21:38.089Z,26.1
2022-08-29T15:22:14.611Z,26.4
2022-08-29T15:22:57.677Z,26.5
2022-08-29T15:23:58.340Z,26.2
2022-08-29T15:24:58.672Z,26.2
2022-08-29T15:25:59.590Z,26.3
2022-08-29T15:27:00.394Z,26.2
2022-08-29T15:27:57.990Z,26
2022-08-29T15:28:58.081Z,25.8
2022-08-29T15:30:01.393Z,26
2022-08-29T15:30:59.669Z,26.2
2022-08-29T15:31:58.694Z,26.2
2022-08-29T15:32:58.446Z,25.9
2022-08-29T15:33:58.248Z,26
2022-08-29T15:34:58.327Z,26
2022-08-29T15:35:58.330Z,26.1
2022-08-29T15:37:02.318Z,25.9
2022-08-29T15:37:58.934Z,25.7
2022-08-29T15:38:58.894Z,25.8
2022-08-29T15:39:59.151Z,26
2022-08-29T15:41:00.280Z,26.1
2022-08-29T15:41:58.852Z,25.8
2022-08-29T15:42:58.835Z,25.7
2022-08-29T15:43:58.751Z,25.7
2022-08-29T15:44:59.323Z,25.7
2022-08-29T15:46:00.023Z,25.7
2022-08-29T15:46:59.053Z,25.8
2022-08-29T15:47:59.498Z,26
2022-08-29T15:48:59.062Z,25.8
2022-08-29T15:50:01.147Z,25.5
2022-08-29T15:50:59.159Z,25.4
2022-08-29T15:52:00.032Z,25.3
2022-08-29T15:53:00.687Z,25.4
2022-08-29T15:53:59.913Z,25.8
2022-08-29T15:54:59.549Z,26.1
2022-08-29T15:56:05.913Z,25.9
2022-08-29T15:56:59.600Z,26
2022-08-29T15:57:59.642Z,25.8
2022-08-29T15:59:00.044Z,25.8
2022-08-29T16:00:02.962Z,25.8
2022-08-29T16:00:59.815Z,25.7
2022-08-29T16:02:00.069Z,25.7
2022-08-29T16:03:00.430Z,26
2022-08-29T16:04:00.018Z,25.9
2022-08-29T16:05:00.025Z,25.6
2022-08-29T16:06:00.090Z,25.6
2022-08-29T16:07:00.117Z,25.5
2022-08-29T16:08:00.214Z,25.7
2022-08-29T16:09:02.674Z,25.8
2022-08-29T16:10:04.626Z,25.7
2022-08-29T16:11:01.643Z,25.6
2022-08-29T16:12:01.732Z,25.3
2022-08-29T16:13:00.553Z,25.2
2022-08-29T16:14:24.817Z,25.1
2022-08-29T16:15:03.685Z,25.1
2022-08-29T16:16:00.697Z,25.3
2022-08-29T16:17:00.743Z,25.6
2022-08-29T16:18:00.761Z,25.7
2022-08-29T16:19:01.273Z,25.6
2022-08-29T16:20:01.031Z,25.3
2022-08-29T16:21:01.923Z,25.2
2022-08-29T16:22:01.016Z,25.3
2022-08-29T16:23:01.299Z,25.4
2022-08-29T16:24:01.061Z,25.4
2022-08-29T16:25:01.181Z,25.5
2022-08-29T16:26:01.228Z,25.3
2022-08-29T16:27:02.036Z,25.2
2022-08-29T16:28:01.424Z,25.3
2022-08-29T16:29:01.413Z,25.3
2022-08-29T16:30:01.669Z,25.1
2022-08-29T16:31:02.209Z,25.1
2022-08-29T16:32:03.482Z,25.1
2022-08-29T16:33:02.455Z,25.2
2022-08-29T16:34:02.643Z,25.1
2022-08-29T16:35:02.295Z,25.1
2022-08-29T16:36:03.425Z,25.1
2022-08-29T16:37:02.718Z,25.1
2022-08-29T16:38:03.413Z,25.2
2022-08-29T16:39:02.044Z,25.1
2022-08-29T16:40:02.294Z,25
2022-08-29T16:41:02.133Z,24.9
2022-08-29T16:42:02.201Z,24.8
2022-08-29T16:43:03.509Z,24.7
2022-08-29T16:44:04.676Z,24.7
2022-08-29T16:45:04.518Z,24.7
2022-08-29T16:46:03.212Z,24.6
2022-08-29T16:47:02.473Z,24.7
2022-08-29T16:48:02.556Z,24.7
2022-08-29T16:49:03.851Z,24.7
2022-08-29T16:50:03.684Z,24.6
2022-08-29T16:51:02.767Z,24.5
2022-08-29T16:52:02.764Z,24.4
2022-08-29T16:53:02.976Z,24.4
2022-08-29T16:54:03.268Z,24.4
2022-08-29T16:55:02.980Z,24.4
2022-08-29T16:56:03.176Z,24.7
2022-08-29T16:57:03.051Z,24.7
2022-08-29T16:58:15.445Z,24.6
2022-08-29T16:59:03.993Z,24.4
2022-08-29T17:00:05.167Z,24.7
2022-08-29T17:01:04.138Z,24.8
2022-08-29T17:02:05.461Z,24.6
2022-08-29T17:03:04.957Z,24.4
2022-08-29T17:04:13.859Z,24.4
2022-08-29T17:05:07.779Z,24.4
2022-08-29T17:06:05.353Z,24.3
2022-08-29T17:07:30.143Z,24.1
2022-08-29T17:08:32.523Z,24.2
2022-08-29T17:09:08.442Z,24.2
2022-08-29T17:10:05.325Z,24.1
2022-08-29T17:11:04.954Z,24.1
2022-08-29T17:12:04.059Z,24.1
2022-08-29T17:13:03.916Z,24.2
2022-08-29T17:14:04.351Z,24.1
2022-08-29T17:15:07.372Z,24.1
2022-08-29T17:16:05.574Z,24.2
2022-08-29T17:17:06.249Z,24.3
2022-08-29T17:18:06.860Z,24.2
2022-08-29T17:19:04.306Z,24.1
2022-08-29T17:20:05.130Z,24.2
2022-08-29T17:21:04.368Z,24
2022-08-29T17:22:05.020Z,24.1
2022-08-29T17:23:04.503Z,24.1
2022-08-29T17:24:04.621Z,24
2022-08-29T17:25:05.216Z,24
2022-08-29T17:26:04.653Z,24
2022-08-29T17:27:04.714Z,24
2022-08-29T17:28:17.444Z,23.9
2022-08-29T17:29:07.378Z,23.8
2022-08-29T17:30:05.816Z,23.9
2022-08-29T17:31:07.082Z,23.9
2022-08-29T17:32:12.526Z,23.9
2022-08-29T17:33:05.126Z,23.8
2022-08-29T17:34:06.633Z,23.8
2022-08-29T17:35:05.233Z,23.8
2022-08-29T17:36:05.222Z,23.8
2022-08-29T17:37:05.715Z,23.9
2022-08-29T17:38:06.514Z,23.9
2022-08-29T17:39:06.319Z,23.8
2022-08-29T17:40:05.740Z,23.7
2022-08-29T17:41:15.093Z,23.8
2022-08-29T17:42:07.470Z,23.8
2022-08-29T17:43:06.875Z,23.7
2022-08-29T17:44:05.674Z,23.7
2022-08-29T17:45:05.948Z,23.7
2022-08-29T17:46:07.375Z,23.6
2022-08-29T17:47:09.262Z,23.5
2022-08-29T17:48:08.979Z,23.5
2022-08-29T17:49:12.107Z,23.5
2022-08-29T17:50:05.991Z,23.5
2022-08-29T17:51:05.985Z,23.6
2022-08-29T17:52:07.299Z,23.4
2022-08-29T17:53:14.760Z,23.4
2022-08-29T17:54:09.745Z,23.4
2022-08-29T17:55:17.574Z,23.4
2022-08-29T17:56:06.407Z,23.5
2022-08-29T17:57:06.343Z,23.5
2022-08-29T17:58:06.505Z,23.4
2022-08-29T17:59:06.445Z,23.4
2022-08-29T18:00:06.669Z,23.4
2022-08-29T18:01:06.645Z,23.5
2022-08-29T18:02:10.363Z,23.5
2022-08-29T18:03:07.530Z,23.4
2022-08-29T18:04:07.132Z,23.4
2022-08-29T18:05:08.651Z,23.3
2022-08-29T18:06:06.907Z,23.3
2022-08-29T18:07:06.971Z,23.3
2022-08-29T18:08:07.307Z,23.3
2022-08-29T18:09:08.712Z,23.3
2022-08-29T18:10:08.839Z,23.3
2022-08-29T18:11:09.050Z,23.2
2022-08-29T18:12:07.423Z,23
2022-08-29T18:13:07.588Z,23.1
2022-08-29T18:14:07.776Z,23.1
2022-08-29T18:15:07.645Z,23.1
2022-08-29T18:16:07.514Z,23.1
2022-08-29T18:17:07.815Z,23.1
2022-08-29T18:18:07.599Z,23
2022-08-29T18:19:07.676Z,23
2022-08-29T18:20:09.221Z,22.9
2022-08-29T18:21:07.765Z,22.9
2022-08-29T18:22:07.815Z,22.9
2022-08-29T18:23:07.878Z,23
2022-08-29T18:24:07.927Z,22.9
2022-08-29T18:25:08.171Z,22.9
2022-08-29T18:26:10.681Z,22.9
2022-08-29T18:27:08.306Z,22.9
2022-08-29T18:28:08.217Z,23
2022-08-29T18:29:09.856Z,23
2022-08-29T18:30:09.636Z,22.9
2022-08-29T18:31:09.379Z,22.9
2022-08-29T18:32:08.439Z,22.8
2022-08-29T18:33:10.360Z,22.7
2022-08-29T18:34:08.838Z,22.5
2022-08-29T18:35:08.538Z,22.4
2022-08-29T18:36:08.951Z,22.3
2022-08-29T18:37:08.998Z,22.3
2022-08-29T18:38:11.470Z,22.4
2022-08-29T18:39:09.897Z,22.4
2022-08-29T18:40:08.895Z,22.4
2022-08-29T18:41:09.755Z,22.5
2022-08-29T18:42:20.439Z,22.5
2022-08-29T18:43:11.262Z,22.5
2022-08-29T18:44:11.400Z,22.5
2022-08-29T18:45:10.351Z,22.5
2022-08-29T18:46:09.476Z,22.5
2022-08-29T18:47:09.876Z,22.5
2022-08-29T18:48:09.395Z,22.5
2022-08-29T18:49:11.567Z,22.4
2022-08-29T18:50:11.063Z,22.4
2022-08-29T18:51:10.982Z,22.2
2022-08-29T18:52:18.581Z,22.3
2022-08-29T18:53:09.581Z,22.3
2022-08-29T18:54:09.658Z,22.4
2022-08-29T18:55:15.225Z,22.3
2022-08-29T18:56:09.995Z,22.4
2022-08-29T18:57:09.846Z,22.4
2022-08-29T18:58:11.584Z,22.4
2022-08-29T18:59:15.180Z,22.3
2022-08-29T19:00:10.689Z,22.2
2022-08-29T19:01:16.710Z,22.1
2022-08-29T19:02:10.642Z,22
2022-08-29T19:03:12.097Z,22.1
2022-08-29T19:04:42.093Z,22.1
2022-08-29T19:05:10.301Z,22.2
2022-08-29T19:06:10.350Z,22.2
2022-08-29T19:07:13.821Z,22.2
2022-08-29T19:08:10.926Z,22.2
2022-08-29T19:09:12.205Z,22.2
2022-08-29T19:10:10.538Z,22.3
2022-08-29T19:11:12.797Z,22.2
2022-08-29T19:12:12.283Z,22.2
2022-08-29T19:25:11.386Z,21.6
2022-08-29T19:26:11.437Z,21.6
2022-08-29T19:27:26.808Z,21.7
2022-08-29T19:28:13.359Z,21.7
2022-08-29T19:29:11.556Z,21.8
2022-08-29T19:30:11.562Z,21.8
2022-08-29T19:31:11.945Z,21.7
2022-08-29T19:32:11.649Z,21.5
2022-08-29T19:33:11.939Z,21.5
2022-08-29T19:34:18.633Z,21.5
2022-08-29T19:35:14.575Z,21.4
2022-08-29T19:36:11.793Z,21.5
2022-08-29T19:37:11.942Z,21.4
2022-08-29T19:38:12.343Z,21.4
2022-08-29T19:39:24.181Z,21.3
2022-08-29T19:40:12.051Z,21.3
2022-08-29T19:41:13.078Z,21.2
2022-08-29T19:42:16.143Z,21.1
2022-08-29T19:43:13.809Z,21.1
2022-08-29T19:44:12.253Z,21
2022-08-29T19:45:12.454Z,21.1
2022-08-29T19:46:14.404Z,21.1
2022-08-29T19:47:12.759Z,21
2022-08-29T19:48:14.980Z,21.2
2022-08-29T19:49:12.327Z,21.1
2022-08-29T19:50:12.444Z,21.3
2022-08-29T19:51:17.349Z,21.2
2022-08-29T19:52:12.829Z,21.2
2022-08-29T19:53:12.471Z,21.1
2022-08-29T19:54:12.597Z,21.4
2022-08-29T19:55:14.797Z,21.5
2022-08-29T19:56:12.788Z,21.3
2022-08-29T19:57:18.142Z,21.2
2022-08-29T19:58:12.850Z,21.2
2022-08-29T20:01:16.639Z,21.2
2022-08-29T20:02:13.692Z,21.3
2022-08-29T20:03:13.669Z,21.2
2022-08-29T20:04:13.679Z,21.1
2022-08-29T20:05:14.821Z,21.1
2022-08-29T20:06:13.782Z,21.2
2022-08-29T20:07:13.857Z,21.3
2022-08-29T20:08:14.865Z,21.3
2022-08-29T20:09:13.993Z,21.1
2022-08-29T20:10:16.418Z,21.1
2022-08-29T20:11:15.888Z,21.2
2022-08-29T20:12:14.192Z,21.1
2022-08-29T20:13:14.263Z,21
2022-08-29T20:14:15.270Z,20.9
2022-08-29T20:15:15.665Z,21.1
2022-08-29T20:16:18.998Z,21
2022-08-29T20:17:14.460Z,21
2022-08-29T20:18:14.396Z,20.8
2022-08-29T20:19:16.405Z,20.9
2022-08-29T20:20:14.711Z,21.1
2022-08-29T20:21:14.868Z,21
2022-08-29T20:22:17.188Z,21.1
2022-08-29T20:23:17.167Z,21
2022-08-29T20:24:15.664Z,21.2
2022-08-29T20:25:14.665Z,21.2
2022-08-29T20:26:14.793Z,20.9
2022-08-29T20:27:14.909Z,21.1
2022-08-29T20:28:18.044Z,21.3
2022-08-29T20:29:14.884Z,21.1
2022-08-29T20:30:15.715Z,21.1
2022-08-29T20:31:15.043Z,21
2022-08-29T20:32:15.060Z,20.8
2022-08-29T20:33:15.201Z,20.8
2022-08-29T20:34:15.153Z,21
2022-08-29T20:35:16.547Z,20.9
2022-08-29T20:36:15.368Z,21
2022-08-29T20:37:19.867Z,21.1
2022-08-29T20:38:16.358Z,21.1
2022-08-29T20:39:15.450Z,21.1
2022-08-29T20:40:15.521Z,20.9
2022-08-29T20:41:16.765Z,20.7
2022-08-29T20:42:15.592Z,20.6
2022-08-29T20:43:23.886Z,20.6
2022-08-29T20:44:15.781Z,20.8
2022-08-29T20:45:16.044Z,21.1
2022-08-29T20:46:17.033Z,21.1
2022-08-29T20:47:15.738Z,21.1
2022-08-29T20:48:17.078Z,21
2022-08-29T20:49:15.807Z,20.9
2022-08-29T20:50:18.379Z,21
2022-08-29T20:51:18.490Z,21
2022-08-29T20:52:15.925Z,21.1
2022-08-29T20:53:32.215Z,21.3
2022-08-29T20:54:16.930Z,21
2022-08-29T20:55:17.888Z,20.9
2022-08-29T20:56:17.086Z,21
2022-08-29T20:57:18.044Z,21
2022-08-29T20:58:19.031Z,20.9
2022-08-29T20:59:17.447Z,21
2022-08-29T21:00:16.524Z,20.8
2022-08-29T21:02:20.961Z,20.9
2022-08-29T21:04:51.686Z,20.6
2022-08-29T21:07:19.655Z,20.6
2022-08-29T21:09:19.677Z,20.7
2022-08-29T21:10:21.401Z,20.7
2022-08-29T21:11:22.908Z,20.5
2022-08-29T21:12:27.381Z,20.5
2022-08-29T21:13:21.466Z,20.5
2022-08-29T21:14:21.380Z,20.5
2022-08-29T21:15:22.321Z,20.5
2022-08-29T21:16:21.493Z,20.5
2022-08-29T21:17:23.096Z,20.6
2022-08-29T21:18:21.954Z,20.7
2022-08-29T21:19:22.839Z,20.4
2022-08-29T21:20:21.671Z,20.5
2022-08-29T21:21:24.631Z,20.6
2022-08-29T21:22:24.775Z,20.5
2022-08-29T21:23:22.081Z,20.4
2022-08-29T21:24:21.843Z,20.4
2022-08-29T21:25:23.164Z,20.3
2022-08-29T21:26:23.237Z,20.5
2022-08-29T21:27:22.034Z,20.5
2022-08-29T21:28:22.086Z,20.4
2022-08-29T21:29:23.788Z,20.3
2022-08-29T21:30:22.137Z,20.5
2022-08-29T21:31:24.171Z,20.7
2022-08-29T21:32:22.250Z,20.6
2022-08-29T21:33:25.643Z,20.4
2022-08-29T21:34:24.329Z,20.3
2022-08-29T21:35:22.411Z,20.3
2022-08-29T21:36:23.789Z,20.1
2022-08-29T21:37:22.485Z,20
2022-08-29T21:38:22.546Z,20.2
2022-08-29T21:39:25.086Z,20.3
2022-08-29T21:40:22.665Z,20.3
2022-08-29T21:41:22.680Z,20.5
2022-08-29T21:42:22.716Z,20.6
2022-08-29T21:43:22.770Z,20.5
2022-08-29T21:44:23.723Z,20.4
2022-08-29T21:45:22.890Z,20.4
2022-08-29T21:46:25.846Z,20.2
2022-08-29T21:47:22.976Z,20.1
2022-08-29T21:48:23.045Z,20.1
2022-08-29T21:49:23.111Z,20
2022-08-29T21:50:23.142Z,20.1
2022-08-29T21:51:25.147Z,20
2022-08-29T21:52:23.986Z,20
2022-08-29T21:53:23.241Z,19.8
2022-08-29T21:54:23.430Z,20.1
2022-08-29T21:55:25.740Z,20.1
2022-08-29T21:56:24.669Z,20.2
2022-08-29T21:57:24.895Z,20.1
2022-08-29T21:58:24.555Z,19.8
2022-08-29T21:59:23.500Z,19.9
2022-08-29T22:00:24.693Z,19.7
2022-08-29T22:01:23.604Z,19.7
2022-08-29T22:02:23.640Z,19.7
2022-08-29T22:03:24.937Z,19.8
2022-08-29T22:04:28.054Z,19.8
2022-08-29T22:05:23.678Z,19.8
2022-08-29T22:06:24.077Z,19.7
2022-08-29T22:07:23.760Z,19.6
2022-08-29T22:08:24.405Z,19.6
2022-08-29T22:09:23.808Z,19.6
2022-08-29T22:10:24.695Z,19.8
2022-08-29T22:11:24.896Z,19.8
2022-08-29T22:12:24.101Z,19.8
2022-08-29T22:13:26.634Z,19.8
2022-08-29T22:14:23.989Z,19.8
2022-08-29T22:15:24.031Z,19.8
2022-08-29T22:16:28.012Z,19.8
2022-08-29T22:17:24.143Z,19.7
2022-08-29T22:18:24.273Z,19.7
2022-08-29T22:19:24.168Z,19.6
2022-08-29T22:20:24.224Z,19.5
2022-08-29T22:21:25.952Z,19.4
2022-08-29T22:22:24.325Z,19.6
2022-08-29T22:23:24.528Z,19.7
2022-08-29T22:24:24.357Z,19.7
2022-08-29T22:25:24.520Z,19.8
2022-08-29T22:26:24.495Z,19.6
2022-08-29T22:27:24.725Z,19.6
2022-08-29T22:28:24.570Z,19.6
2022-08-29T22:29:24.692Z,19.6
2022-08-29T22:30:28.812Z,19.5
2022-08-29T22:31:26.433Z,19.6
2022-08-29T22:32:24.888Z,19.5
2022-08-29T22:33:24.815Z,19.4
2022-08-29T22:34:26.596Z,19.6
2022-08-29T22:35:26.437Z,19.7
2022-08-29T22:36:26.509Z,19.6
2022-08-29T22:37:34.568Z,19.8
2022-08-29T22:48:16.400Z,19.3
2022-08-29T22:49:14.449Z,19.5
2022-08-29T22:50:13.990Z,19.6
2022-08-29T22:51:14.200Z,19.6
2022-08-29T22:52:14.119Z,19.5
2022-08-29T22:53:14.764Z,19.5
2022-08-29T22:54:14.219Z,19.4
2022-08-29T22:55:14.261Z,19.5
2022-08-29T22:56:14.272Z,19.4
2022-08-29T22:57:14.338Z,19.4
2022-08-29T22:58:18.823Z,19.4
2022-08-29T22:59:14.422Z,19.5
2022-08-29T23:01:14.925Z,19.2
2022-08-29T23:02:14.715Z,19.4
2022-08-29T23:03:14.861Z,19.3
2022-08-29T23:04:16.164Z,19.2
2022-08-29T23:06:14.962Z,19.4
2022-08-29T23:07:14.861Z,19.5
2022-08-29T23:09:14.945Z,19.6
2022-08-29T23:10:14.962Z,19.5
2022-08-29T23:11:15.046Z,19.5
2022-08-29T23:12:15.057Z,19.4
2022-08-29T23:13:15.311Z,19.3
2022-08-29T23:14:15.213Z,19.5
2022-08-29T23:15:16.784Z,19.4
2022-08-29T23:16:15.202Z,19.4
2022-08-29T23:17:15.393Z,19.3
2022-08-29T23:18:16.971Z,19.4
2022-08-29T23:19:17.019Z,19.4
2022-08-29T23:20:38.254Z,19.2
2022-08-29T23:21:17.294Z,19.3
2022-08-29T23:25:38.855Z,19.2
2022-08-29T23:26:19.112Z,19.4
2022-08-29T23:27:17.282Z,19.4
2022-08-29T23:28:19.184Z,19.4
2022-08-29T23:30:18.195Z,19.5
2022-08-29T23:31:18.121Z,19.5
2022-08-29T23:32:17.704Z,19.4
2022-08-29T23:33:18.731Z,19.4
2022-08-29T23:34:17.515Z,19.4
2022-08-29T23:35:33.967Z,19.4
2022-08-29T23:36:19.770Z,19.4
2022-08-29T23:37:18.807Z,19.5
2022-08-29T23:47:20.517Z,19.4
2022-08-29T23:48:18.763Z,19.2
2022-08-29T23:49:20.316Z,19.3
